createdAt,value
2022-11-23T00:00:17.117Z,2.27
2022-11-23T00:02:43.712Z,1.57
2022-11-23T00:05:10.549Z,2.00
2022-11-23T00:07:37.151Z,2.30
2022-11-23T00:10:04.105Z,1.63
2022-11-23T00:12:30.840Z,1.63
2022-11-23T00:14:57.484Z,1.90
2022-11-23T00:17:24.074Z,2.10
2022-11-23T00:19:50.752Z,1.90
2022-11-23T00:22:17.396Z,2.40
2022-11-23T00:24:44.184Z,1.73
2022-11-23T00:27:10.804Z,1.90
2022-11-23T00:29:37.374Z,2.10
2022-11-23T00:32:04.197Z,1.63
2022-11-23T00:34:30.801Z,3.53
2022-11-23T00:36:57.424Z,2.43
2022-11-23T00:39:24.033Z,1.83
2022-11-23T00:41:50.620Z,2.07
2022-11-23T00:44:17.397Z,2.60
2022-11-23T00:46:43.969Z,1.80
2022-11-23T00:49:10.593Z,2.20
2022-11-23T00:51:37.985Z,1.93
2022-11-23T00:54:06.121Z,2.20
2022-11-23T00:56:34.620Z,1.70
2022-11-23T00:59:02.728Z,1.97
2022-11-23T01:01:34.044Z,2.10
2022-11-23T01:04:03.385Z,1.97
2022-11-23T01:06:35.909Z,1.77
2022-11-23T01:09:06.477Z,2.13
2022-11-23T01:11:33.102Z,2.57
2022-11-23T01:14:00.280Z,2.00
2022-11-23T01:16:32.901Z,1.87
2022-11-23T01:19:02.521Z,2.57
2022-11-23T01:21:30.425Z,2.00
2022-11-23T01:23:57.512Z,2.00
2022-11-23T01:26:24.408Z,1.80
2022-11-23T01:28:51.436Z,1.83
2022-11-23T01:31:20.434Z,2.20
2022-11-23T01:33:47.819Z,1.77
2022-11-23T01:36:17.046Z,2.17
2022-11-23T01:38:44.652Z,2.30
2022-11-23T01:41:17.702Z,1.70
2022-11-23T01:43:44.698Z,1.60
2022-11-23T01:46:12.067Z,2.13
2022-11-23T01:48:49.145Z,2.17
2022-11-23T01:51:20.419Z,1.87
2022-11-23T01:53:49.969Z,3.20
2022-11-23T01:56:23.361Z,2.53
2022-11-23T01:58:53.604Z,2.10
2022-11-23T02:01:20.365Z,2.43
2022-11-23T02:03:49.129Z,2.10
2022-11-23T02:06:18.686Z,4.00
2022-11-23T02:08:46.945Z,2.63
2022-11-23T02:11:15.373Z,1.60
2022-11-23T02:13:44.807Z,2.07
2022-11-23T02:16:12.444Z,2.33
2022-11-23T02:18:45.242Z,2.80
2022-11-23T02:21:12.710Z,2.37
2022-11-23T02:23:59.851Z,1.80
2022-11-23T02:26:29.773Z,2.43
2022-11-23T02:29:05.075Z,2.67
2022-11-23T02:31:31.927Z,2.30
2022-11-23T02:33:58.627Z,2.07
2022-11-23T02:36:36.995Z,3.60
2022-11-23T02:39:08.944Z,2.20
2022-11-23T02:41:44.868Z,2.30
2022-11-23T02:44:31.833Z,2.25
2022-11-23T02:46:58.896Z,1.80
2022-11-23T02:49:25.785Z,2.30
2022-11-23T02:51:52.921Z,2.07
2022-11-23T02:54:19.703Z,2.00
2022-11-23T02:56:46.381Z,2.00
2022-11-23T02:59:13.037Z,2.50
2022-11-23T03:01:42.622Z,2.00
2022-11-23T03:04:10.480Z,2.50
2022-11-23T03:06:37.551Z,1.90
2022-11-23T03:09:04.424Z,1.60
2022-11-23T03:11:31.274Z,2.43
2022-11-23T03:13:58.009Z,2.80
2022-11-23T03:16:24.637Z,2.50
2022-11-23T03:18:51.731Z,2.63
2022-11-23T03:21:18.349Z,2.97
2022-11-23T03:23:45.334Z,1.83
2022-11-23T03:26:13.271Z,2.83
2022-11-23T03:28:40.552Z,1.80
2022-11-23T03:31:07.227Z,2.23
2022-11-23T03:33:33.949Z,2.30
2022-11-23T03:36:00.691Z,2.00
2022-11-23T03:38:27.588Z,1.93
2022-11-23T03:40:54.235Z,2.30
2022-11-23T03:43:21.425Z,1.77
2022-11-23T03:45:48.223Z,1.60
2022-11-23T03:48:15.690Z,1.40
2022-11-23T03:50:42.391Z,2.07
2022-11-23T03:53:09.135Z,2.80
2022-11-23T03:55:35.765Z,1.97
2022-11-23T03:58:02.480Z,2.00
2022-11-23T04:00:30.533Z,1.90
2022-11-23T04:02:57.237Z,1.90
2022-11-23T04:05:23.974Z,1.90
2022-11-23T04:07:50.777Z,2.33
2022-11-23T04:10:19.156Z,2.00
2022-11-23T04:12:50.182Z,2.40
2022-11-23T04:15:16.947Z,1.80
2022-11-23T04:17:43.562Z,1.87
2022-11-23T04:20:10.561Z,1.43
2022-11-23T04:22:37.159Z,2.03
2022-11-23T04:25:04.068Z,1.63
2022-11-23T04:27:30.673Z,2.13
2022-11-23T04:29:57.280Z,2.23
2022-11-23T04:32:23.882Z,2.00
2022-11-23T04:34:50.512Z,2.47
2022-11-23T04:37:17.145Z,1.50
2022-11-23T04:39:43.722Z,2.77
2022-11-23T04:42:13.820Z,2.77
2022-11-23T04:44:40.536Z,1.97
2022-11-23T04:47:07.238Z,1.73
2022-11-23T04:49:34.105Z,1.80
2022-11-23T04:52:00.944Z,2.77
2022-11-23T04:54:27.574Z,2.27
2022-11-23T04:56:54.347Z,2.00
2022-11-23T04:59:22.168Z,1.55
2022-11-23T05:01:49.492Z,2.00
2022-11-23T05:04:18.000Z,2.40
2022-11-23T05:06:45.251Z,1.63
2022-11-23T05:09:12.441Z,1.83
2022-11-23T05:11:39.090Z,2.90
2022-11-23T05:14:05.792Z,1.88
2022-11-23T05:16:32.448Z,1.50
2022-11-23T05:18:59.058Z,2.20
2022-11-23T05:21:25.711Z,2.27
2022-11-23T05:23:52.510Z,1.73
2022-11-23T05:26:19.565Z,2.70
2022-11-23T05:28:46.259Z,2.10
2022-11-23T05:31:12.873Z,2.10
2022-11-23T05:33:39.666Z,2.58
2022-11-23T05:36:06.711Z,1.77
2022-11-23T05:38:33.336Z,2.17
2022-11-23T05:40:59.948Z,2.10
2022-11-23T05:43:26.549Z,2.73
2022-11-23T05:45:53.167Z,2.17
2022-11-23T05:48:19.863Z,2.70
2022-11-23T05:50:46.498Z,2.50
2022-11-23T05:53:13.079Z,1.90
2022-11-23T05:55:39.652Z,2.87
2022-11-23T05:58:06.259Z,2.50
2022-11-23T06:00:32.929Z,2.27
2022-11-23T06:03:01.304Z,2.60
2022-11-23T06:05:28.614Z,2.00
2022-11-23T06:07:55.909Z,2.47
2022-11-23T06:10:22.635Z,2.50
2022-11-23T06:12:52.716Z,2.05
2022-11-23T06:15:19.677Z,2.40
2022-11-23T06:17:47.360Z,1.90
2022-11-23T06:20:14.195Z,2.15
2022-11-23T06:22:40.882Z,2.70
2022-11-23T06:25:07.850Z,2.20
2022-11-23T06:27:34.513Z,2.08
2022-11-23T06:30:01.164Z,2.88
2022-11-23T06:32:27.752Z,2.77
2022-11-23T06:34:59.391Z,2.10
2022-11-23T06:37:27.500Z,2.57
2022-11-23T06:39:54.106Z,2.88
2022-11-23T06:45:08.160Z,2.20
2022-11-23T06:47:35.155Z,3.53
2022-11-23T06:50:01.719Z,2.03
2022-11-23T06:52:28.436Z,2.13
2022-11-23T06:54:55.117Z,1.70
2022-11-23T06:57:21.733Z,1.97
2022-11-23T06:59:48.440Z,2.10
2022-11-23T07:02:15.517Z,1.90
2022-11-23T07:04:42.233Z,1.80
2022-11-23T07:07:09.293Z,2.07
2022-11-23T07:09:36.307Z,2.80
2022-11-23T07:12:02.949Z,2.17
2022-11-23T07:14:29.693Z,2.00
2022-11-23T07:16:56.325Z,1.97
2022-11-23T07:19:22.947Z,1.77
2022-11-23T07:21:49.641Z,2.20
2022-11-23T07:26:47.924Z,1.90
2022-11-23T07:29:14.612Z,2.30
2022-11-23T07:31:41.267Z,3.00
2022-11-23T07:34:09.209Z,1.65
2022-11-23T07:36:35.792Z,3.47
2022-11-23T07:39:03.392Z,1.90
2022-11-23T07:41:30.066Z,2.20
2022-11-23T07:43:56.635Z,2.20
2022-11-23T07:46:23.306Z,2.20
2022-11-23T07:48:50.277Z,2.30
2022-11-23T07:51:19.476Z,1.73
2022-11-23T07:53:47.104Z,2.87
2022-11-23T07:56:15.770Z,2.38
2022-11-23T07:58:42.440Z,2.50
2022-11-23T08:01:09.012Z,3.20
2022-11-23T08:03:36.274Z,2.20
2022-11-23T08:06:02.956Z,2.33
2022-11-23T08:08:29.586Z,2.37
2022-11-23T08:10:56.215Z,2.30
2022-11-23T08:13:23.428Z,2.23
2022-11-23T08:15:54.800Z,2.83
2022-11-23T08:18:23.122Z,2.10
2022-11-23T08:20:49.888Z,2.30
2022-11-23T08:23:16.484Z,2.10
2022-11-23T08:25:43.107Z,2.77
2022-11-23T08:28:09.780Z,2.85
2022-11-23T08:30:36.753Z,3.13
2022-11-23T08:33:05.227Z,3.40
2022-11-23T08:35:37.292Z,2.50
2022-11-23T08:38:04.715Z,2.63
2022-11-23T08:40:31.627Z,4.20
2022-11-23T08:42:58.424Z,2.43
2022-11-23T08:45:25.259Z,2.40
2022-11-23T08:47:52.899Z,2.87
2022-11-23T08:50:21.590Z,3.37
2022-11-23T08:52:48.234Z,4.10
2022-11-23T08:55:14.927Z,4.05
2022-11-23T08:57:41.970Z,3.53
2022-11-23T09:00:09.233Z,2.90
2022-11-23T09:02:35.877Z,3.47
2022-11-23T09:05:02.587Z,3.00
2022-11-23T09:07:29.235Z,3.10
2022-11-23T09:10:01.063Z,4.20
2022-11-23T09:12:27.763Z,3.53
2022-11-23T09:14:54.379Z,3.40
2022-11-23T09:17:20.972Z,3.30
2022-11-23T09:19:50.248Z,4.20
2022-11-23T09:22:16.845Z,3.90
2022-11-23T09:24:43.468Z,4.87
2022-11-23T09:27:10.145Z,4.20
2022-11-23T09:29:37.464Z,3.80
2022-11-23T09:32:04.198Z,3.30
2022-11-23T09:34:31.163Z,3.10
2022-11-23T09:36:58.152Z,3.57
2022-11-23T09:39:25.374Z,4.10
2022-11-23T09:42:03.738Z,3.70
2022-11-23T09:44:52.089Z,3.03
2022-11-23T09:47:37.890Z,2.50
2022-11-23T09:50:07.477Z,3.10
2022-11-23T09:52:36.266Z,2.40
2022-11-23T09:55:11.973Z,3.27
2022-11-23T09:57:42.317Z,3.10
2022-11-23T10:00:21.276Z,2.97
2022-11-23T10:02:48.352Z,2.73
2022-11-23T10:05:24.837Z,2.50
2022-11-23T10:08:01.861Z,2.63
2022-11-23T10:10:45.696Z,3.10
2022-11-23T10:13:15.115Z,2.97
2022-11-23T10:15:50.702Z,2.60
2022-11-23T10:18:48.017Z,3.00
2022-11-23T10:21:52.449Z,2.50
2022-11-23T10:24:24.842Z,2.70
2022-11-23T10:26:51.460Z,3.00
2022-11-23T10:29:26.236Z,2.50
2022-11-23T10:31:57.015Z,2.93
2022-11-23T10:34:46.199Z,2.60
2022-11-23T10:37:14.257Z,2.93
2022-11-23T10:39:41.106Z,2.90
2022-11-23T10:42:25.132Z,2.97
2022-11-23T10:44:55.408Z,2.50
2022-11-23T10:47:43.064Z,3.13
2022-11-23T10:50:23.869Z,3.23
2022-11-23T10:52:52.574Z,3.00
2022-11-23T10:55:26.186Z,3.43
2022-11-23T10:57:58.048Z,3.43
2022-11-23T11:00:30.976Z,3.33
2022-11-23T11:02:59.723Z,2.80
2022-11-23T11:05:53.558Z,2.87
2022-11-23T11:08:16.976Z,2.93
2022-11-23T11:10:50.021Z,2.20
2022-11-23T11:13:39.957Z,3.50
2022-11-23T11:16:20.026Z,3.47
2022-11-23T11:18:46.701Z,2.73
2022-11-23T11:21:41.309Z,2.57
2022-11-23T11:24:18.114Z,2.33
2022-11-23T11:26:52.881Z,2.93
2022-11-23T11:29:38.713Z,8.70
2022-11-23T11:32:28.981Z,39.07
2022-11-23T11:35:02.874Z,30.10
2022-11-23T11:37:37.107Z,10.10
2022-11-23T11:40:27.642Z,12.00
2022-11-23T11:43:02.610Z,7.77
2022-11-23T11:45:34.051Z,15.60
2022-11-23T11:48:17.316Z,6.20
2022-11-23T11:50:50.865Z,6.60
2022-11-23T11:53:19.830Z,31.87
2022-11-23T11:55:53.934Z,14.60
2022-11-23T11:58:23.026Z,2.17
2022-11-23T12:00:50.521Z,2.30
2022-11-23T12:03:25.055Z,3.17
2022-11-23T12:05:53.310Z,1.97
2022-11-23T12:08:46.683Z,2.20
2022-11-23T12:11:14.074Z,2.47
2022-11-23T12:13:43.514Z,2.43
2022-11-23T12:16:29.475Z,1.90
2022-11-23T12:18:59.856Z,1.53
2022-11-23T12:21:33.106Z,2.43
2022-11-23T12:24:18.726Z,1.90
2022-11-23T12:27:05.994Z,1.90
2022-11-23T12:29:51.621Z,1.90
2022-11-23T12:32:45.359Z,2.07
2022-11-23T12:35:21.596Z,1.80
2022-11-23T12:38:07.280Z,2.07
2022-11-23T12:40:47.559Z,3.10
2022-11-23T12:43:17.316Z,2.60
2022-11-23T12:46:04.527Z,1.87
2022-11-23T12:48:56.617Z,1.87
2022-11-23T12:51:42.768Z,1.60
2022-11-23T12:54:12.902Z,1.53
2022-11-23T12:56:40.018Z,2.43
2022-11-23T12:59:10.264Z,2.10
2022-11-23T13:01:39.788Z,1.50
2022-11-23T13:04:12.888Z,2.10
2022-11-23T13:06:54.056Z,1.70
2022-11-23T13:09:40.411Z,2.40
2022-11-23T13:12:25.712Z,1.70
2022-11-23T13:15:07.750Z,2.17
2022-11-23T13:17:50.578Z,2.07
2022-11-23T13:20:20.635Z,1.33
2022-11-23T13:22:48.092Z,1.90
2022-11-23T13:25:24.573Z,1.40
2022-11-23T13:27:51.149Z,1.47
2022-11-23T13:30:24.639Z,1.73
2022-11-23T13:33:02.159Z,1.50
2022-11-23T13:35:28.762Z,1.43
2022-11-23T13:37:58.230Z,1.60
2022-11-23T13:40:33.648Z,1.67
2022-11-23T13:43:09.294Z,1.23
2022-11-23T13:45:39.108Z,1.40
2022-11-23T13:48:08.812Z,1.27
2022-11-23T13:50:38.325Z,1.67
2022-11-23T13:53:51.434Z,1.43
2022-11-23T13:56:22.613Z,2.27
2022-11-23T13:58:53.690Z,2.40
2022-11-23T14:02:02.932Z,1.47
2022-11-23T14:04:44.285Z,1.70
2022-11-23T14:07:49.390Z,2.20
2022-11-23T14:10:21.190Z,2.10
2022-11-23T14:12:58.708Z,1.30
2022-11-23T14:15:29.119Z,2.53
2022-11-23T14:18:33.670Z,1.47
2022-11-23T14:21:15.332Z,1.90
2022-11-23T14:24:19.725Z,1.60
2022-11-23T14:27:23.782Z,1.33
2022-11-23T14:29:56.149Z,1.70
2022-11-23T14:33:03.605Z,1.40
2022-11-23T14:35:42.576Z,2.10
2022-11-23T14:38:33.828Z,1.53
2022-11-23T14:41:22.969Z,2.03
2022-11-23T14:43:52.095Z,1.77
2022-11-23T14:46:21.148Z,1.40
2022-11-23T14:48:49.100Z,1.77
2022-11-23T14:51:28.049Z,1.50
2022-11-23T14:53:58.978Z,1.47
2022-11-23T14:56:45.239Z,2.23
2022-11-23T14:59:18.060Z,1.50
2022-11-23T15:01:55.967Z,2.43
2022-11-23T15:04:29.163Z,2.87
2022-11-23T15:07:01.662Z,1.77
2022-11-23T15:09:37.187Z,1.80
2022-11-23T15:12:08.136Z,1.33
2022-11-23T15:14:35.636Z,1.70
2022-11-23T15:17:16.892Z,3.77
2022-11-23T15:19:43.656Z,2.43
2022-11-23T15:22:16.726Z,1.77
2022-11-23T15:24:44.938Z,7.10
2022-11-23T15:27:18.684Z,2.90
2022-11-23T15:29:54.276Z,5.57
2022-11-23T15:32:35.249Z,3.03
2022-11-23T15:35:06.809Z,2.10
2022-11-23T15:37:45.267Z,2.77
2022-11-23T15:40:17.109Z,2.30
2022-11-23T15:42:44.992Z,2.07
2022-11-23T15:45:58.547Z,2.43
2022-11-23T15:48:34.053Z,2.47
2022-11-23T15:51:03.209Z,3.00
2022-11-23T15:53:50.555Z,3.20
2022-11-23T15:56:37.561Z,5.60
2022-11-23T15:59:18.075Z,3.00
2022-11-23T16:01:44.902Z,2.07
2022-11-23T16:04:36.974Z,2.37
2022-11-23T16:07:15.546Z,2.90
2022-11-23T16:09:51.098Z,3.07
2022-11-23T16:12:33.822Z,2.90
2022-11-23T16:15:44.150Z,2.30
2022-11-23T16:18:22.596Z,2.33
2022-11-23T16:20:53.727Z,2.03
2022-11-23T16:23:23.701Z,1.80
2022-11-23T16:26:05.709Z,2.23
2022-11-23T16:28:53.273Z,1.77
2022-11-23T16:31:38.233Z,2.03
2022-11-23T16:34:17.491Z,1.87
2022-11-23T16:36:44.324Z,2.47
2022-11-23T16:39:11.479Z,1.70
2022-11-23T16:41:39.019Z,2.20
2022-11-23T16:44:05.647Z,1.73
2022-11-23T16:46:32.711Z,1.93
2022-11-23T16:49:00.189Z,3.70
2022-11-23T16:51:27.821Z,2.13
2022-11-23T16:54:13.172Z,2.50
2022-11-23T16:56:41.123Z,2.20
2022-11-23T16:59:16.048Z,2.40
2022-11-23T17:01:45.765Z,2.50
2022-11-23T17:04:15.033Z,3.58
2022-11-23T17:06:42.779Z,2.20
2022-11-23T17:09:10.026Z,1.90
2022-11-23T17:11:45.140Z,2.15
2022-11-23T17:14:18.782Z,2.22
2022-11-23T17:16:46.784Z,1.70
2022-11-23T17:19:19.234Z,2.10
2022-11-23T17:21:45.871Z,1.77
2022-11-23T17:24:13.681Z,3.35
2022-11-23T17:26:41.723Z,2.03
2022-11-23T17:29:19.000Z,1.93
2022-11-23T17:31:47.365Z,2.63
2022-11-23T17:34:14.960Z,2.53
2022-11-23T17:36:42.850Z,2.40
2022-11-23T17:39:18.684Z,2.15
2022-11-23T17:41:45.360Z,2.43
2022-11-23T17:44:12.086Z,1.75
2022-11-23T17:46:38.948Z,1.80
2022-11-23T17:49:08.004Z,2.00
2022-11-23T17:51:34.676Z,2.23
2022-11-23T17:54:01.333Z,1.60
2022-11-23T17:56:28.154Z,1.90
2022-11-23T17:58:54.946Z,2.15
2022-11-23T18:01:22.271Z,2.15
2022-11-23T18:03:49.649Z,2.63
2022-11-23T18:06:22.369Z,8.32
2022-11-23T18:08:51.075Z,7.25
2022-11-23T18:11:18.744Z,8.60
2022-11-23T18:13:47.417Z,10.23
2022-11-23T18:16:14.424Z,4.20
2022-11-23T18:18:41.198Z,3.60
2022-11-23T18:21:09.684Z,2.58
2022-11-23T18:23:37.259Z,3.20
2022-11-23T18:26:17.137Z,4.40
2022-11-23T18:28:45.348Z,3.80
2022-11-23T18:31:12.520Z,2.42
2022-11-23T18:33:39.531Z,3.60
2022-11-23T18:36:06.860Z,2.90
2022-11-23T18:38:34.445Z,1.93
2022-11-23T18:41:01.059Z,1.90
2022-11-23T18:43:28.017Z,2.00
2022-11-23T18:45:54.725Z,3.55
2022-11-23T18:48:22.325Z,2.40
2022-11-23T18:50:49.189Z,1.67
2022-11-23T18:53:16.261Z,2.23
2022-11-23T18:55:43.059Z,2.22
2022-11-23T18:58:10.588Z,2.40
2022-11-23T19:00:37.343Z,3.03
2022-11-23T19:03:04.647Z,3.57
2022-11-23T19:05:33.834Z,3.53
2022-11-23T19:08:05.940Z,2.33
2022-11-23T19:10:38.048Z,3.43
2022-11-23T19:13:05.992Z,3.03
2022-11-23T19:15:33.891Z,3.43
2022-11-23T19:18:01.068Z,3.22
2022-11-23T19:20:29.272Z,2.42
2022-11-23T19:22:56.090Z,2.23
2022-11-23T19:25:22.710Z,2.88
2022-11-23T19:27:51.523Z,2.13
2022-11-23T19:30:18.446Z,2.95
2022-11-23T19:32:45.090Z,1.80
2022-11-23T19:35:11.831Z,2.37
2022-11-23T19:37:38.686Z,2.15
2022-11-23T19:40:06.172Z,3.20
2022-11-23T19:42:35.614Z,2.30
2022-11-23T19:45:03.080Z,2.90
2022-11-23T19:47:31.390Z,2.55
2022-11-23T19:49:59.037Z,2.90
2022-11-23T19:52:48.136Z,2.33
2022-11-23T19:55:14.387Z,2.65
2022-11-23T19:57:41.128Z,3.90
2022-11-23T20:00:09.321Z,2.63
2022-11-23T20:02:35.950Z,2.35
2022-11-23T20:05:02.699Z,2.50
2022-11-23T20:07:31.714Z,2.85
2022-11-23T20:09:58.503Z,3.30
2022-11-23T20:12:25.093Z,3.13
2022-11-23T20:14:51.744Z,3.42
2022-11-23T20:17:18.369Z,2.47
2022-11-23T20:19:45.039Z,3.53
2022-11-23T20:22:11.801Z,2.70
2022-11-23T20:24:38.739Z,2.00
2022-11-23T20:27:05.402Z,2.60
2022-11-23T20:29:32.403Z,2.75
2022-11-23T20:31:59.342Z,2.35
2022-11-23T20:34:26.594Z,2.90
2022-11-23T20:36:53.278Z,2.38
2022-11-23T20:39:19.919Z,2.80
2022-11-23T20:41:49.255Z,2.65
2022-11-23T20:44:15.885Z,3.03
2022-11-23T20:47:01.240Z,3.03
2022-11-23T20:49:29.922Z,3.20
2022-11-23T20:51:56.871Z,3.50
2022-11-23T20:54:23.633Z,3.63
2022-11-23T20:56:50.294Z,3.67
2022-11-23T20:59:17.286Z,3.25
2022-11-23T21:01:44.122Z,4.82
2022-11-23T21:04:11.025Z,3.30
2022-11-23T21:06:40.201Z,4.63
2022-11-23T21:09:08.804Z,4.65
2022-11-23T21:11:55.827Z,3.97
2022-11-23T21:14:27.081Z,4.82
2022-11-23T21:16:56.131Z,4.32
2022-11-23T21:19:27.616Z,4.68
2022-11-23T21:21:55.125Z,4.50
2022-11-23T21:24:21.992Z,4.25
2022-11-23T21:26:49.054Z,2.60
2022-11-23T21:29:17.163Z,3.03
2022-11-23T21:31:45.946Z,3.97
2022-11-23T21:34:21.893Z,3.67
2022-11-23T21:36:50.472Z,3.10
2022-11-23T21:39:17.848Z,3.63
2022-11-23T21:41:45.337Z,3.20
2022-11-23T21:44:12.313Z,2.45
2022-11-23T21:46:40.210Z,3.55
2022-11-23T21:49:07.768Z,2.60
2022-11-23T21:51:35.375Z,2.80
2022-11-23T21:54:03.951Z,2.90
2022-11-23T21:56:31.056Z,3.80
2022-11-23T21:58:58.867Z,3.30
2022-11-23T22:01:28.087Z,4.43
2022-11-23T22:03:56.440Z,4.25
2022-11-23T22:06:23.659Z,4.00
2022-11-23T22:08:52.079Z,3.65
2022-11-23T22:11:25.722Z,3.80
2022-11-23T22:13:53.660Z,4.22
2022-11-23T22:16:25.024Z,4.30
2022-11-23T22:18:55.602Z,4.30
2022-11-23T22:21:25.608Z,3.25
2022-11-23T22:23:53.920Z,3.47
2022-11-23T22:26:21.376Z,3.22
2022-11-23T22:28:51.952Z,3.53
2022-11-23T22:31:20.300Z,3.33
2022-11-23T22:33:48.233Z,3.75
2022-11-23T22:36:15.327Z,3.20
2022-11-23T22:38:42.750Z,3.72
2022-11-23T22:41:11.217Z,3.45
2022-11-23T22:43:38.458Z,3.25
2022-11-23T22:46:06.667Z,3.63
2022-11-23T22:48:36.470Z,3.78
2022-11-23T22:51:03.815Z,3.45
2022-11-23T22:53:31.001Z,3.17
2022-11-23T22:56:02.905Z,2.97
2022-11-23T22:58:30.988Z,3.83
2022-11-23T23:00:58.958Z,3.20
2022-11-23T23:03:26.122Z,3.67
2022-11-23T23:05:59.729Z,3.33
2022-11-23T23:08:27.313Z,3.97
2022-11-23T23:10:54.461Z,3.40
2022-11-23T23:13:21.861Z,3.70
2022-11-23T23:15:49.189Z,3.60
2022-11-23T23:18:18.581Z,3.00
2022-11-23T23:20:45.906Z,4.70
2022-11-23T23:23:13.797Z,5.32
2022-11-23T23:25:40.817Z,4.30
2022-11-23T23:28:07.829Z,4.90
2022-11-23T23:30:34.951Z,5.03
2022-11-23T23:33:02.155Z,5.95
2022-11-23T23:35:29.324Z,4.63
2022-11-23T23:37:57.408Z,5.63
2022-11-23T23:40:24.404Z,5.70
2022-11-23T23:42:51.471Z,6.00
2022-11-23T23:45:18.559Z,6.97
2022-11-23T23:47:45.750Z,6.45
2022-11-23T23:50:12.774Z,6.78
2022-11-23T23:52:40.553Z,7.38
2022-11-23T23:55:07.843Z,7.00
2022-11-23T23:57:34.913Z,5.25
